sensor_id;sensor_type;location;lat;lon;timestamp;temperature;humidity
74513;DHT22;62992;52.052;8.550;2023-02-05T00:01:52;0.40;99.90
74513;DHT22;62992;52.052;8.550;2023-02-05T00:04:36;0.50;99.90
74513;DHT22;62992;52.052;8.550;2023-02-05T00:07:20;0.60;99.90
74513;DHT22;62992;52.052;8.550;2023-02-05T00:10:05;0.60;99.90
74513;DHT22;62992;52.052;8.550;2023-02-05T00:12:49;0.70;99.90
74513;DHT22;62992;52.052;8.550;2023-02-05T00:15:38;0.60;99.90
74513;DHT22;62992;52.052;8.550;2023-02-05T00:18:22;0.60;99.90
74513;DHT22;62992;52.052;8.550;2023-02-05T00:21:07;0.60;99.90
74513;DHT22;62992;52.052;8.550;2023-02-05T00:23:52;0.60;99.90
74513;DHT22;62992;52.052;8.550;2023-02-05T00:26:37;0.70;99.90
74513;DHT22;62992;52.052;8.550;2023-02-05T00:29:21;0.60;99.90
74513;DHT22;62992;52.052;8.550;2023-02-05T00:32:05;0.70;99.90
74513;DHT22;62992;52.052;8.550;2023-02-05T00:34:49;0.70;99.90
74513;DHT22;62992;52.052;8.550;2023-02-05T00:37:33;0.60;99.90
74513;DHT22;62992;52.052;8.550;2023-02-05T00:40:17;0.60;99.90
74513;DHT22;62992;52.052;8.550;2023-02-05T00:43:01;0.60;99.90
74513;DHT22;62992;52.052;8.550;2023-02-05T00:45:45;0.60;99.90
74513;DHT22;62992;52.052;8.550;2023-02-05T00:48:29;0.50;99.90
74513;DHT22;62992;52.052;8.550;2023-02-05T00:51:13;0.60;99.90
74513;DHT22;62992;52.052;8.550;2023-02-05T00:53:57;0.50;99.90
74513;DHT22;62992;52.052;8.550;2023-02-05T00:56:41;0.50;99.90
74513;DHT22;62992;52.052;8.550;2023-02-05T00:59:25;0.50;99.90
74513;DHT22;62992;52.052;8.550;2023-02-05T01:02:09;0.40;99.90
74513;DHT22;62992;52.052;8.550;2023-02-05T01:04:53;0.40;99.90
74513;DHT22;62992;52.052;8.550;2023-02-05T01:07:39;0.40;99.90
74513;DHT22;62992;52.052;8.550;2023-02-05T01:10:24;0.40;99.90
74513;DHT22;62992;52.052;8.550;2023-02-05T01:13:08;0.30;99.90
74513;DHT22;62992;52.052;8.550;2023-02-05T01:15:52;0.20;99.90
74513;DHT22;62992;52.052;8.550;2023-02-05T01:18:37;0.20;99.90
74513;DHT22;62992;52.052;8.550;2023-02-05T01:21:23;0.20;99.90
74513;DHT22;62992;52.052;8.550;2023-02-05T01:24:07;0.20;99.90
74513;DHT22;62992;52.052;8.550;2023-02-05T01:26:51;0.20;99.90
74513;DHT22;62992;52.052;8.550;2023-02-05T01:29:38;0.30;99.90
74513;DHT22;62992;52.052;8.550;2023-02-05T01:32:22;0.20;99.90
74513;DHT22;62992;52.052;8.550;2023-02-05T01:35:07;0.30;99.90
74513;DHT22;62992;52.052;8.550;2023-02-05T01:37:51;0.40;99.90
74513;DHT22;62992;52.052;8.550;2023-02-05T01:40:36;0.40;99.90
74513;DHT22;62992;52.052;8.550;2023-02-05T01:43:20;0.30;99.90
74513;DHT22;62992;52.052;8.550;2023-02-05T01:46:20;0.40;99.90
74513;DHT22;62992;52.052;8.550;2023-02-05T01:49:11;0.40;99.90
74513;DHT22;62992;52.052;8.550;2023-02-05T01:52:00;0.50;99.90
74513;DHT22;62992;52.052;8.550;2023-02-05T01:54:46;0.50;99.90
74513;DHT22;62992;52.052;8.550;2023-02-05T01:57:32;0.60;99.90
74513;DHT22;62992;52.052;8.550;2023-02-05T02:00:17;0.60;99.90
74513;DHT22;62992;52.052;8.550;2023-02-05T02:03:01;0.60;99.90
74513;DHT22;62992;52.052;8.550;2023-02-05T02:05:46;0.70;99.90
74513;DHT22;62992;52.052;8.550;2023-02-05T02:08:30;0.80;99.90
74513;DHT22;62992;52.052;8.550;2023-02-05T02:11:17;0.80;99.90
74513;DHT22;62992;52.052;8.550;2023-02-05T02:14:05;0.80;99.90
74513;DHT22;62992;52.052;8.550;2023-02-05T02:16:51;0.80;99.90
74513;DHT22;62992;52.052;8.550;2023-02-05T02:19:58;0.80;99.90
74513;DHT22;62992;52.052;8.550;2023-02-05T02:29:01;0.90;99.90
74513;DHT22;62992;52.052;8.550;2023-02-05T02:31:54;0.90;99.90
74513;DHT22;62992;52.052;8.550;2023-02-05T02:35:07;1.00;99.90
74513;DHT22;62992;52.052;8.550;2023-02-05T02:38:23;1.00;99.90
74513;DHT22;62992;52.052;8.550;2023-02-05T02:41:16;1.00;99.90
74513;DHT22;62992;52.052;8.550;2023-02-05T02:44:17;1.00;99.90
74513;DHT22;62992;52.052;8.550;2023-02-05T02:47:11;1.00;99.90
74513;DHT22;62992;52.052;8.550;2023-02-05T02:49:58;1.00;99.90
74513;DHT22;62992;52.052;8.550;2023-02-05T02:52:45;1.10;99.90
74513;DHT22;62992;52.052;8.550;2023-02-05T02:55:35;1.10;99.90
74513;DHT22;62992;52.052;8.550;2023-02-05T02:58:28;1.10;99.90
74513;DHT22;62992;52.052;8.550;2023-02-05T03:01:14;1.20;99.90
74513;DHT22;62992;52.052;8.550;2023-02-05T03:04:14;1.20;99.90
74513;DHT22;62992;52.052;8.550;2023-02-05T03:07:04;1.20;99.90
74513;DHT22;62992;52.052;8.550;2023-02-05T03:10:10;1.20;99.90
74513;DHT22;62992;52.052;8.550;2023-02-05T03:12:57;1.20;99.90
74513;DHT22;62992;52.052;8.550;2023-02-05T03:15:42;1.20;99.90
74513;DHT22;62992;52.052;8.550;2023-02-05T03:18:28;1.20;99.90
74513;DHT22;62992;52.052;8.550;2023-02-05T03:21:15;1.20;99.90
74513;DHT22;62992;52.052;8.550;2023-02-05T03:24:00;1.20;99.90
74513;DHT22;62992;52.052;8.550;2023-02-05T03:26:45;1.20;99.90
74513;DHT22;62992;52.052;8.550;2023-02-05T03:29:36;1.20;99.90
74513;DHT22;62992;52.052;8.550;2023-02-05T03:38:43;1.20;99.90
74513;DHT22;62992;52.052;8.550;2023-02-05T03:41:53;1.20;99.90
74513;DHT22;62992;52.052;8.550;2023-02-05T03:57:12;1.20;99.90
74513;DHT22;62992;52.052;8.550;2023-02-05T04:00:00;1.30;99.90
74513;DHT22;62992;52.052;8.550;2023-02-05T04:02:45;1.30;99.90
74513;DHT22;62992;52.052;8.550;2023-02-05T04:05:29;1.30;99.90
74513;DHT22;62992;52.052;8.550;2023-02-05T04:08:13;1.30;99.90
74513;DHT22;62992;52.052;8.550;2023-02-05T04:10:57;1.40;99.90
74513;DHT22;62992;52.052;8.550;2023-02-05T04:13:41;1.40;99.90
74513;DHT22;62992;52.052;8.550;2023-02-05T04:16:25;1.30;99.90
74513;DHT22;62992;52.052;8.550;2023-02-05T04:19:09;1.30;99.90
74513;DHT22;62992;52.052;8.550;2023-02-05T04:21:54;1.30;99.90
74513;DHT22;62992;52.052;8.550;2023-02-05T04:24:38;1.40;99.90
74513;DHT22;62992;52.052;8.550;2023-02-05T04:27:22;1.40;99.90
74513;DHT22;62992;52.052;8.550;2023-02-05T04:30:06;1.50;99.90
74513;DHT22;62992;52.052;8.550;2023-02-05T04:32:50;1.50;99.90
74513;DHT22;62992;52.052;8.550;2023-02-05T04:35:34;1.50;99.90
74513;DHT22;62992;52.052;8.550;2023-02-05T04:38:18;1.50;99.90
74513;DHT22;62992;52.052;8.550;2023-02-05T04:41:02;1.30;99.90
74513;DHT22;62992;52.052;8.550;2023-02-05T04:43:47;1.40;99.90
74513;DHT22;62992;52.052;8.550;2023-02-05T04:46:31;1.40;99.90
74513;DHT22;62992;52.052;8.550;2023-02-05T04:49:15;1.40;99.90
74513;DHT22;62992;52.052;8.550;2023-02-05T04:51:59;1.40;99.90
74513;DHT22;62992;52.052;8.550;2023-02-05T04:54:43;1.40;99.90
74513;DHT22;62992;52.052;8.550;2023-02-05T04:57:29;1.50;99.90
74513;DHT22;62992;52.052;8.550;2023-02-05T05:00:14;1.30;99.90
74513;DHT22;62992;52.052;8.550;2023-02-05T05:02:58;1.30;99.90
74513;DHT22;62992;52.052;8.550;2023-02-05T05:05:42;1.40;99.90
74513;DHT22;62992;52.052;8.550;2023-02-05T05:08:27;1.40;99.90
74513;DHT22;62992;52.052;8.550;2023-02-05T05:11:14;1.50;99.90
74513;DHT22;62992;52.052;8.550;2023-02-05T05:13:58;1.50;99.90
74513;DHT22;62992;52.052;8.550;2023-02-05T05:16:43;1.40;99.90
74513;DHT22;62992;52.052;8.550;2023-02-05T05:19:27;1.40;99.90
74513;DHT22;62992;52.052;8.550;2023-02-05T05:22:11;1.50;99.90
74513;DHT22;62992;52.052;8.550;2023-02-05T05:24:55;1.50;99.90
74513;DHT22;62992;52.052;8.550;2023-02-05T05:27:39;1.60;99.90
74513;DHT22;62992;52.052;8.550;2023-02-05T05:30:23;1.40;99.90
74513;DHT22;62992;52.052;8.550;2023-02-05T05:33:07;1.40;99.90
74513;DHT22;62992;52.052;8.550;2023-02-05T05:35:52;1.40;99.90
74513;DHT22;62992;52.052;8.550;2023-02-05T05:38:36;1.50;99.90
74513;DHT22;62992;52.052;8.550;2023-02-05T05:41:22;1.60;99.90
74513;DHT22;62992;52.052;8.550;2023-02-05T05:44:26;1.60;99.90
74513;DHT22;62992;52.052;8.550;2023-02-05T05:47:10;1.60;99.90
74513;DHT22;62992;52.052;8.550;2023-02-05T05:49:54;1.60;99.90
74513;DHT22;62992;52.052;8.550;2023-02-05T05:52:38;1.70;99.90
74513;DHT22;62992;52.052;8.550;2023-02-05T05:55:22;1.60;99.90
74513;DHT22;62992;52.052;8.550;2023-02-05T05:58:06;1.70;99.90
74513;DHT22;62992;52.052;8.550;2023-02-05T06:00:51;1.70;99.90
74513;DHT22;62992;52.052;8.550;2023-02-05T06:03:35;1.60;99.90
74513;DHT22;62992;52.052;8.550;2023-02-05T06:06:19;1.70;99.90
74513;DHT22;62992;52.052;8.550;2023-02-05T06:09:03;1.70;99.90
74513;DHT22;62992;52.052;8.550;2023-02-05T06:11:47;1.70;99.90
74513;DHT22;62992;52.052;8.550;2023-02-05T06:14:32;1.70;99.90
74513;DHT22;62992;52.052;8.550;2023-02-05T06:17:16;1.70;99.90
74513;DHT22;62992;52.052;8.550;2023-02-05T06:20:00;1.80;99.90
74513;DHT22;62992;52.052;8.550;2023-02-05T06:22:44;1.80;99.90
74513;DHT22;62992;52.052;8.550;2023-02-05T06:25:28;1.80;99.90
74513;DHT22;62992;52.052;8.550;2023-02-05T06:28:13;1.80;99.90
74513;DHT22;62992;52.052;8.550;2023-02-05T06:30:57;1.80;99.90
74513;DHT22;62992;52.052;8.550;2023-02-05T06:33:41;1.80;99.90
74513;DHT22;62992;52.052;8.550;2023-02-05T06:36:25;1.80;99.90
74513;DHT22;62992;52.052;8.550;2023-02-05T06:39:09;1.90;99.90
74513;DHT22;62992;52.052;8.550;2023-02-05T06:41:53;1.80;99.90
74513;DHT22;62992;52.052;8.550;2023-02-05T06:44:38;1.80;99.90
74513;DHT22;62992;52.052;8.550;2023-02-05T06:47:22;1.90;99.90
74513;DHT22;62992;52.052;8.550;2023-02-05T06:50:06;1.90;99.90
74513;DHT22;62992;52.052;8.550;2023-02-05T06:52:50;1.90;99.90
74513;DHT22;62992;52.052;8.550;2023-02-05T06:55:36;1.90;99.90
74513;DHT22;62992;52.052;8.550;2023-02-05T06:58:20;1.90;99.90
74513;DHT22;62992;52.052;8.550;2023-02-05T07:01:04;1.90;99.90
74513;DHT22;62992;52.052;8.550;2023-02-05T07:03:48;1.80;99.90
74513;DHT22;62992;52.052;8.550;2023-02-05T07:06:37;1.80;99.90
74513;DHT22;62992;52.052;8.550;2023-02-05T07:09:21;1.90;99.90
74513;DHT22;62992;52.052;8.550;2023-02-05T07:12:06;1.90;99.90
74513;DHT22;62992;52.052;8.550;2023-02-05T07:14:50;1.90;99.90
74513;DHT22;62992;52.052;8.550;2023-02-05T07:17:34;2.00;99.90
74513;DHT22;62992;52.052;8.550;2023-02-05T07:20:18;2.00;99.90
74513;DHT22;62992;52.052;8.550;2023-02-05T07:23:03;2.10;99.90
74513;DHT22;62992;52.052;8.550;2023-02-05T07:25:48;2.20;99.90
74513;DHT22;62992;52.052;8.550;2023-02-05T07:28:32;2.20;99.90
74513;DHT22;62992;52.052;8.550;2023-02-05T07:31:18;2.20;99.90
74513;DHT22;62992;52.052;8.550;2023-02-05T07:34:02;2.20;99.90
74513;DHT22;62992;52.052;8.550;2023-02-05T07:36:51;2.10;99.90
74513;DHT22;62992;52.052;8.550;2023-02-05T07:39:35;2.10;99.90
74513;DHT22;62992;52.052;8.550;2023-02-05T07:42:19;2.10;99.90
74513;DHT22;62992;52.052;8.550;2023-02-05T07:45:04;2.10;99.90
74513;DHT22;62992;52.052;8.550;2023-02-05T07:47:49;2.00;99.90
74513;DHT22;62992;52.052;8.550;2023-02-05T07:50:33;2.00;99.90
74513;DHT22;62992;52.052;8.550;2023-02-05T07:53:18;2.00;99.90
74513;DHT22;62992;52.052;8.550;2023-02-05T07:56:03;2.00;99.90
74513;DHT22;62992;52.052;8.550;2023-02-05T07:58:47;2.00;99.90
74513;DHT22;62992;52.052;8.550;2023-02-05T08:01:32;2.10;99.90
74513;DHT22;62992;52.052;8.550;2023-02-05T08:04:16;2.00;99.90
74513;DHT22;62992;52.052;8.550;2023-02-05T08:07:00;2.10;99.90
74513;DHT22;62992;52.052;8.550;2023-02-05T08:09:44;2.10;99.90
74513;DHT22;62992;52.052;8.550;2023-02-05T08:12:28;2.10;99.90
74513;DHT22;62992;52.052;8.550;2023-02-05T08:15:12;2.20;99.90
74513;DHT22;62992;52.052;8.550;2023-02-05T08:17:57;2.20;99.90
74513;DHT22;62992;52.052;8.550;2023-02-05T08:20:42;2.20;99.90
74513;DHT22;62992;52.052;8.550;2023-02-05T08:23:27;2.20;99.90
74513;DHT22;62992;52.052;8.550;2023-02-05T08:26:11;2.30;99.90
74513;DHT22;62992;52.052;8.550;2023-02-05T08:28:57;2.30;99.90
74513;DHT22;62992;52.052;8.550;2023-02-05T08:31:42;2.30;99.90
74513;DHT22;62992;52.052;8.550;2023-02-05T08:34:27;2.40;99.90
74513;DHT22;62992;52.052;8.550;2023-02-05T08:37:11;2.40;99.90
74513;DHT22;62992;52.052;8.550;2023-02-05T08:39:55;2.40;99.90
74513;DHT22;62992;52.052;8.550;2023-02-05T08:42:39;2.50;99.90
74513;DHT22;62992;52.052;8.550;2023-02-05T08:45:23;2.50;99.90
74513;DHT22;62992;52.052;8.550;2023-02-05T08:48:08;2.50;99.90
74513;DHT22;62992;52.052;8.550;2023-02-05T08:50:52;2.50;99.90
74513;DHT22;62992;52.052;8.550;2023-02-05T08:53:36;2.50;99.90
74513;DHT22;62992;52.052;8.550;2023-02-05T08:56:20;2.50;99.90
74513;DHT22;62992;52.052;8.550;2023-02-05T08:59:05;2.60;99.90
74513;DHT22;62992;52.052;8.550;2023-02-05T09:01:50;2.60;99.90
74513;DHT22;62992;52.052;8.550;2023-02-05T09:04:34;2.60;99.90
74513;DHT22;62992;52.052;8.550;2023-02-05T09:07:18;2.60;99.90
74513;DHT22;62992;52.052;8.550;2023-02-05T09:10:02;2.70;99.90
74513;DHT22;62992;52.052;8.550;2023-02-05T09:12:46;2.70;99.90
74513;DHT22;62992;52.052;8.550;2023-02-05T09:15:31;2.80;99.90
74513;DHT22;62992;52.052;8.550;2023-02-05T09:18:15;2.80;99.90
74513;DHT22;62992;52.052;8.550;2023-02-05T09:20:59;2.80;99.90
74513;DHT22;62992;52.052;8.550;2023-02-05T09:23:49;2.80;99.90
74513;DHT22;62992;52.052;8.550;2023-02-05T09:26:34;2.90;99.90
74513;DHT22;62992;52.052;8.550;2023-02-05T09:29:20;2.90;99.90
74513;DHT22;62992;52.052;8.550;2023-02-05T09:32:04;3.00;99.90
74513;DHT22;62992;52.052;8.550;2023-02-05T09:34:48;3.00;99.90
74513;DHT22;62992;52.052;8.550;2023-02-05T09:37:32;3.10;99.90
74513;DHT22;62992;52.052;8.550;2023-02-05T09:40:21;3.10;99.90
74513;DHT22;62992;52.052;8.550;2023-02-05T09:49:30;3.20;99.90
74513;DHT22;62992;52.052;8.550;2023-02-05T09:52:22;3.20;99.90
74513;DHT22;62992;52.052;8.550;2023-02-05T09:58:15;3.30;99.90
74513;DHT22;62992;52.052;8.550;2023-02-05T10:01:06;3.40;99.90
74513;DHT22;62992;52.052;8.550;2023-02-05T10:04:02;3.50;99.90
74513;DHT22;62992;52.052;8.550;2023-02-05T10:07:34;3.60;99.90
74513;DHT22;62992;52.052;8.550;2023-02-05T10:10:31;3.70;99.90
74513;DHT22;62992;52.052;8.550;2023-02-05T10:13:27;3.80;99.90
74513;DHT22;62992;52.052;8.550;2023-02-05T10:16:30;3.80;99.90
74513;DHT22;62992;52.052;8.550;2023-02-05T10:34:59;4.00;99.90
74513;DHT22;62992;52.052;8.550;2023-02-05T10:37:51;4.00;99.90
74513;DHT22;62992;52.052;8.550;2023-02-05T10:40:40;4.10;99.90
74513;DHT22;62992;52.052;8.550;2023-02-05T10:43:38;4.20;99.90
74513;DHT22;62992;52.052;8.550;2023-02-05T10:46:28;4.20;99.90
74513;DHT22;62992;52.052;8.550;2023-02-05T10:52:28;4.30;99.90
74513;DHT22;62992;52.052;8.550;2023-02-05T10:55:12;4.30;99.90
74513;DHT22;62992;52.052;8.550;2023-02-05T10:57:57;4.50;99.90
74513;DHT22;62992;52.052;8.550;2023-02-05T11:00:43;4.60;99.90
74513;DHT22;62992;52.052;8.550;2023-02-05T11:03:27;4.60;99.90
74513;DHT22;62992;52.052;8.550;2023-02-05T11:06:11;4.60;99.90
74513;DHT22;62992;52.052;8.550;2023-02-05T11:08:56;4.60;99.90
74513;DHT22;62992;52.052;8.550;2023-02-05T11:11:40;4.90;99.90
74513;DHT22;62992;52.052;8.550;2023-02-05T11:14:39;5.00;99.90
74513;DHT22;62992;52.052;8.550;2023-02-05T11:17:35;5.00;99.90
74513;DHT22;62992;52.052;8.550;2023-02-05T11:20:34;5.10;99.90
74513;DHT22;62992;52.052;8.550;2023-02-05T11:23:22;5.10;99.90
74513;DHT22;62992;52.052;8.550;2023-02-05T11:26:08;5.00;99.90
74513;DHT22;62992;52.052;8.550;2023-02-05T11:28:53;4.90;99.90
74513;DHT22;62992;52.052;8.550;2023-02-05T11:31:37;5.00;99.90
74513;DHT22;62992;52.052;8.550;2023-02-05T11:34:21;5.00;99.90
74513;DHT22;62992;52.052;8.550;2023-02-05T11:37:14;5.00;99.90
74513;DHT22;62992;52.052;8.550;2023-02-05T11:39:59;4.90;99.90
74513;DHT22;62992;52.052;8.550;2023-02-05T11:42:49;5.00;99.90
74513;DHT22;62992;52.052;8.550;2023-02-05T11:45:39;5.00;99.90
74513;DHT22;62992;52.052;8.550;2023-02-05T11:48:37;5.00;99.90
74513;DHT22;62992;52.052;8.550;2023-02-05T11:54:21;5.10;99.90
74513;DHT22;62992;52.052;8.550;2023-02-05T12:03:05;5.10;99.90
74513;DHT22;62992;52.052;8.550;2023-02-05T12:05:57;5.10;99.90
74513;DHT22;62992;52.052;8.550;2023-02-05T12:08:50;5.10;99.90
74513;DHT22;62992;52.052;8.550;2023-02-05T12:15:03;5.00;99.90
74513;DHT22;62992;52.052;8.550;2023-02-05T12:24:03;5.00;99.90
74513;DHT22;62992;52.052;8.550;2023-02-05T12:26:58;5.00;99.90
74513;DHT22;62992;52.052;8.550;2023-02-05T12:36:50;5.10;99.90
74513;DHT22;62992;52.052;8.550;2023-02-05T12:42:47;5.10;99.90
74513;DHT22;62992;52.052;8.550;2023-02-05T12:45:54;5.10;99.90
74513;DHT22;62992;52.052;8.550;2023-02-05T12:54:57;5.00;99.90
74513;DHT22;62992;52.052;8.550;2023-02-05T12:57:51;4.90;99.90
74513;DHT22;62992;52.052;8.550;2023-02-05T13:00:50;5.00;99.90
74513;DHT22;62992;52.052;8.550;2023-02-05T13:03:44;4.90;99.90
74513;DHT22;62992;52.052;8.550;2023-02-05T13:06:42;4.90;99.90
74513;DHT22;62992;52.052;8.550;2023-02-05T13:09:29;4.80;99.90
74513;DHT22;62992;52.052;8.550;2023-02-05T13:12:17;4.90;99.90
74513;DHT22;62992;52.052;8.550;2023-02-05T13:18:04;4.80;99.90
74513;DHT22;62992;52.052;8.550;2023-02-05T13:21:19;4.80;99.90
74513;DHT22;62992;52.052;8.550;2023-02-05T13:24:36;4.80;99.90
74513;DHT22;62992;52.052;8.550;2023-02-05T13:27:53;4.80;99.90
74513;DHT22;62992;52.052;8.550;2023-02-05T13:30:59;4.80;99.90
74513;DHT22;62992;52.052;8.550;2023-02-05T13:33:44;4.90;99.90
74513;DHT22;62992;52.052;8.550;2023-02-05T13:52:09;4.80;99.90
74513;DHT22;62992;52.052;8.550;2023-02-05T13:58:00;4.80;99.90
74513;DHT22;62992;52.052;8.550;2023-02-05T14:01:06;4.80;99.90
74513;DHT22;62992;52.052;8.550;2023-02-05T14:04:15;4.80;99.90
74513;DHT22;62992;52.052;8.550;2023-02-05T14:07:06;4.70;99.90
74513;DHT22;62992;52.052;8.550;2023-02-05T14:09:56;4.70;99.90
74513;DHT22;62992;52.052;8.550;2023-02-05T14:12:43;4.70;99.90
74513;DHT22;62992;52.052;8.550;2023-02-05T14:15:41;4.70;99.90
74513;DHT22;62992;52.052;8.550;2023-02-05T14:24:41;4.70;99.90
74513;DHT22;62992;52.052;8.550;2023-02-05T14:39:05;4.60;99.90
74513;DHT22;62992;52.052;8.550;2023-02-05T14:42:03;4.70;99.90
74513;DHT22;62992;52.052;8.550;2023-02-05T14:44:53;4.60;99.90
74513;DHT22;62992;52.052;8.550;2023-02-05T14:47:42;4.70;99.90
74513;DHT22;62992;52.052;8.550;2023-02-05T14:50:28;4.60;99.90
74513;DHT22;62992;52.052;8.550;2023-02-05T14:53:22;4.60;99.90
74513;DHT22;62992;52.052;8.550;2023-02-05T14:59:57;4.60;99.90
74513;DHT22;62992;52.052;8.550;2023-02-05T15:03:00;4.60;99.90
74513;DHT22;62992;52.052;8.550;2023-02-05T15:05:51;4.60;99.90
74513;DHT22;62992;52.052;8.550;2023-02-05T15:09:00;4.60;99.90
74513;DHT22;62992;52.052;8.550;2023-02-05T15:14:40;4.50;99.90
74513;DHT22;62992;52.052;8.550;2023-02-05T15:20:26;4.50;99.90
74513;DHT22;62992;52.052;8.550;2023-02-05T15:23:31;4.40;99.90
74513;DHT22;62992;52.052;8.550;2023-02-05T15:29:25;4.40;99.90
74513;DHT22;62992;52.052;8.550;2023-02-05T15:32:17;4.40;99.90
74513;DHT22;62992;52.052;8.550;2023-02-05T15:35:06;4.40;99.90
74513;DHT22;62992;52.052;8.550;2023-02-05T15:37:55;4.40;99.90
74513;DHT22;62992;52.052;8.550;2023-02-05T15:40:40;4.40;99.90
74513;DHT22;62992;52.052;8.550;2023-02-05T15:43:26;4.40;99.90
74513;DHT22;62992;52.052;8.550;2023-02-05T15:46:14;4.40;99.90
74513;DHT22;62992;52.052;8.550;2023-02-05T15:48:58;4.40;99.90
74513;DHT22;62992;52.052;8.550;2023-02-05T15:51:45;4.30;99.90
74513;DHT22;62992;52.052;8.550;2023-02-05T15:54:32;4.30;99.90
74513;DHT22;62992;52.052;8.550;2023-02-05T15:57:21;4.30;99.90
74513;DHT22;62992;52.052;8.550;2023-02-05T16:00:07;4.30;99.90
74513;DHT22;62992;52.052;8.550;2023-02-05T16:02:54;4.30;99.90
74513;DHT22;62992;52.052;8.550;2023-02-05T16:05:50;4.30;99.90
74513;DHT22;62992;52.052;8.550;2023-02-05T16:08:35;4.30;99.90
74513;DHT22;62992;52.052;8.550;2023-02-05T16:11:31;4.30;99.90
74513;DHT22;62992;52.052;8.550;2023-02-05T16:14:26;4.30;99.90
74513;DHT22;62992;52.052;8.550;2023-02-05T16:17:17;4.30;99.90
74513;DHT22;62992;52.052;8.550;2023-02-05T16:20:11;4.30;99.90
74513;DHT22;62992;52.052;8.550;2023-02-05T16:23:04;4.30;99.90
74513;DHT22;62992;52.052;8.550;2023-02-05T16:25:53;4.30;99.90
74513;DHT22;62992;52.052;8.550;2023-02-05T16:29:03;4.30;99.90
74513;DHT22;62992;52.052;8.550;2023-02-05T16:31:58;4.30;99.90
74513;DHT22;62992;52.052;8.550;2023-02-05T16:34:44;4.20;99.90
74513;DHT22;62992;52.052;8.550;2023-02-05T16:37:30;4.20;99.90
74513;DHT22;62992;52.052;8.550;2023-02-05T16:40:27;4.20;99.90
74513;DHT22;62992;52.052;8.550;2023-02-05T16:46:26;4.20;99.90
74513;DHT22;62992;52.052;8.550;2023-02-05T16:49:27;4.10;99.90
74513;DHT22;62992;52.052;8.550;2023-02-05T16:52:32;4.10;99.90
74513;DHT22;62992;52.052;8.550;2023-02-05T16:58:03;4.10;99.90
74513;DHT22;62992;52.052;8.550;2023-02-05T17:00:54;4.10;99.90
74513;DHT22;62992;52.052;8.550;2023-02-05T17:03:39;4.10;99.90
74513;DHT22;62992;52.052;8.550;2023-02-05T17:06:32;4.10;99.90
74513;DHT22;62992;52.052;8.550;2023-02-05T17:09:32;4.10;99.90
74513;DHT22;62992;52.052;8.550;2023-02-05T17:18:20;4.10;99.90
74513;DHT22;62992;52.052;8.550;2023-02-05T17:21:25;4.10;99.90
74513;DHT22;62992;52.052;8.550;2023-02-05T17:24:09;4.00;99.90
74513;DHT22;62992;52.052;8.550;2023-02-05T17:26:54;4.10;99.90
74513;DHT22;62992;52.052;8.550;2023-02-05T17:29:38;4.10;99.90
74513;DHT22;62992;52.052;8.550;2023-02-05T17:32:23;4.10;99.90
74513;DHT22;62992;52.052;8.550;2023-02-05T17:35:13;4.20;99.90
74513;DHT22;62992;52.052;8.550;2023-02-05T17:37:57;4.10;99.90
74513;DHT22;62992;52.052;8.550;2023-02-05T17:40:41;4.10;99.90
74513;DHT22;62992;52.052;8.550;2023-02-05T17:43:26;4.10;99.90
74513;DHT22;62992;52.052;8.550;2023-02-05T17:46:14;4.00;99.90
74513;DHT22;62992;52.052;8.550;2023-02-05T17:48:58;4.00;99.90
74513;DHT22;62992;52.052;8.550;2023-02-05T17:51:42;4.00;99.90
74513;DHT22;62992;52.052;8.550;2023-02-05T17:54:26;4.00;99.90
74513;DHT22;62992;52.052;8.550;2023-02-05T17:59:54;3.90;99.90
74513;DHT22;62992;52.052;8.550;2023-02-05T18:02:39;3.90;99.90
74513;DHT22;62992;52.052;8.550;2023-02-05T18:05:23;3.90;99.90
74513;DHT22;62992;52.052;8.550;2023-02-05T18:08:10;3.90;99.90
74513;DHT22;62992;52.052;8.550;2023-02-05T18:10:54;3.90;99.90
74513;DHT22;62992;52.052;8.550;2023-02-05T18:13:38;3.90;99.90
74513;DHT22;62992;52.052;8.550;2023-02-05T18:16:23;3.80;99.90
74513;DHT22;62992;52.052;8.550;2023-02-05T18:19:07;3.80;99.90
74513;DHT22;62992;52.052;8.550;2023-02-05T18:21:51;3.80;99.90
74513;DHT22;62992;52.052;8.550;2023-02-05T18:24:35;3.80;99.90
74513;DHT22;62992;52.052;8.550;2023-02-05T18:27:20;3.90;99.90
74513;DHT22;62992;52.052;8.550;2023-02-05T18:30:04;3.90;99.90
74513;DHT22;62992;52.052;8.550;2023-02-05T18:32:48;3.90;99.90
74513;DHT22;62992;52.052;8.550;2023-02-05T18:35:32;3.80;99.90
74513;DHT22;62992;52.052;8.550;2023-02-05T18:38:17;3.80;99.90
74513;DHT22;62992;52.052;8.550;2023-02-05T18:41:13;3.80;99.90
74513;DHT22;62992;52.052;8.550;2023-02-05T18:43:58;3.90;99.90
74513;DHT22;62992;52.052;8.550;2023-02-05T18:46:42;3.90;99.90
74513;DHT22;62992;52.052;8.550;2023-02-05T18:49:27;3.90;99.90
74513;DHT22;62992;52.052;8.550;2023-02-05T18:52:11;3.90;99.90
74513;DHT22;62992;52.052;8.550;2023-02-05T18:54:57;3.90;99.90
74513;DHT22;62992;52.052;8.550;2023-02-05T18:57:41;3.90;99.90
74513;DHT22;62992;52.052;8.550;2023-02-05T19:00:25;3.90;99.90
74513;DHT22;62992;52.052;8.550;2023-02-05T19:03:09;3.90;99.90
74513;DHT22;62992;52.052;8.550;2023-02-05T19:05:54;3.90;99.90
74513;DHT22;62992;52.052;8.550;2023-02-05T19:08:38;3.90;99.90
74513;DHT22;62992;52.052;8.550;2023-02-05T19:11:23;3.90;99.90
74513;DHT22;62992;52.052;8.550;2023-02-05T19:14:10;4.00;99.90
74513;DHT22;62992;52.052;8.550;2023-02-05T19:16:54;3.90;99.90
74513;DHT22;62992;52.052;8.550;2023-02-05T19:19:38;3.90;99.90
74513;DHT22;62992;52.052;8.550;2023-02-05T19:22:22;4.00;99.90
74513;DHT22;62992;52.052;8.550;2023-02-05T19:25:06;3.90;99.90
74513;DHT22;62992;52.052;8.550;2023-02-05T19:27:51;4.00;99.90
74513;DHT22;62992;52.052;8.550;2023-02-05T19:30:36;3.90;99.90
74513;DHT22;62992;52.052;8.550;2023-02-05T19:33:20;3.90;99.90
74513;DHT22;62992;52.052;8.550;2023-02-05T19:36:06;4.00;99.90
74513;DHT22;62992;52.052;8.550;2023-02-05T19:38:50;3.90;99.90
74513;DHT22;62992;52.052;8.550;2023-02-05T19:41:36;3.90;99.90
74513;DHT22;62992;52.052;8.550;2023-02-05T19:44:20;3.90;99.90
74513;DHT22;62992;52.052;8.550;2023-02-05T19:47:04;3.90;99.90
74513;DHT22;62992;52.052;8.550;2023-02-05T19:49:48;3.90;99.90
74513;DHT22;62992;52.052;8.550;2023-02-05T19:52:33;4.00;99.90
74513;DHT22;62992;52.052;8.550;2023-02-05T19:55:16;3.90;99.90
74513;DHT22;62992;52.052;8.550;2023-02-05T19:58:01;3.90;99.90
74513;DHT22;62992;52.052;8.550;2023-02-05T20:00:45;3.90;99.90
74513;DHT22;62992;52.052;8.550;2023-02-05T20:03:29;3.90;99.90
74513;DHT22;62992;52.052;8.550;2023-02-05T20:06:15;3.90;99.90
74513;DHT22;62992;52.052;8.550;2023-02-05T20:09:01;3.90;99.90
74513;DHT22;62992;52.052;8.550;2023-02-05T20:11:48;3.90;99.90
74513;DHT22;62992;52.052;8.550;2023-02-05T20:14:32;3.90;99.90
74513;DHT22;62992;52.052;8.550;2023-02-05T20:17:16;3.90;99.90
74513;DHT22;62992;52.052;8.550;2023-02-05T20:20:02;3.90;99.90
74513;DHT22;62992;52.052;8.550;2023-02-05T20:22:47;3.90;99.90
74513;DHT22;62992;52.052;8.550;2023-02-05T20:25:33;3.80;99.90
74513;DHT22;62992;52.052;8.550;2023-02-05T20:28:17;3.90;99.90
74513;DHT22;62992;52.052;8.550;2023-02-05T20:31:01;3.80;99.90